sensor_id;sensor_type;location;lat;lon;timestamp;P1;durP1;ratioP1;P2;durP2;ratioP2
40635;SDS011;26642;55.766;37.828;2022-12-29T00:02:18;5.55;;;1.63;;
40635;SDS011;26642;55.766;37.828;2022-12-29T00:04:44;2.90;;;1.40;;
40635;SDS011;26642;55.766;37.828;2022-12-29T00:07:10;2.22;;;1.30;;
40635;SDS011;26642;55.766;37.828;2022-12-29T00:09:36;3.97;;;1.38;;
40635;SDS011;26642;55.766;37.828;2022-12-29T00:12:03;4.70;;;1.52;;
40635;SDS011;26642;55.766;37.828;2022-12-29T00:14:29;3.60;;;1.30;;
40635;SDS011;26642;55.766;37.828;2022-12-29T00:17:14;2.17;;;0.90;;
40635;SDS011;26642;55.766;37.828;2022-12-29T00:19:40;2.83;;;1.13;;
40635;SDS011;26642;55.766;37.828;2022-12-29T00:22:25;1.80;;;1.20;;
40635;SDS011;26642;55.766;37.828;2022-12-29T00:25:10;1.42;;;0.95;;
40635;SDS011;26642;55.766;37.828;2022-12-29T00:27:55;2.15;;;1.10;;
40635;SDS011;26642;55.766;37.828;2022-12-29T00:30:41;3.45;;;1.20;;
40635;SDS011;26642;55.766;37.828;2022-12-29T00:33:30;1.98;;;0.95;;
40635;SDS011;26642;55.766;37.828;2022-12-29T00:36:36;3.90;;;1.20;;
40635;SDS011;26642;55.766;37.828;2022-12-29T00:39:07;2.38;;;1.02;;
40635;SDS011;26642;55.766;37.828;2022-12-29T00:42:05;2.63;;;1.27;;
40635;SDS011;26642;55.766;37.828;2022-12-29T00:44:51;2.78;;;1.15;;
40635;SDS011;26642;55.766;37.828;2022-12-29T00:47:17;2.25;;;1.48;;
40635;SDS011;26642;55.766;37.828;2022-12-29T00:49:42;2.75;;;1.40;;
40635;SDS011;26642;55.766;37.828;2022-12-29T00:52:10;3.72;;;1.00;;
40635;SDS011;26642;55.766;37.828;2022-12-29T00:54:38;2.40;;;1.20;;
40635;SDS011;26642;55.766;37.828;2022-12-29T00:57:05;2.40;;;1.23;;
40635;SDS011;26642;55.766;37.828;2022-12-29T00:59:34;1.23;;;1.10;;
40635;SDS011;26642;55.766;37.828;2022-12-29T01:02:01;3.80;;;1.20;;
40635;SDS011;26642;55.766;37.828;2022-12-29T01:04:28;3.65;;;1.02;;
40635;SDS011;26642;55.766;37.828;2022-12-29T01:06:53;2.30;;;1.08;;
40635;SDS011;26642;55.766;37.828;2022-12-29T01:09:20;3.15;;;1.00;;
40635;SDS011;26642;55.766;37.828;2022-12-29T01:12:04;1.17;;;0.50;;
40635;SDS011;26642;55.766;37.828;2022-12-29T01:14:31;2.28;;;1.00;;
40635;SDS011;26642;55.766;37.828;2022-12-29T01:16:57;2.33;;;0.80;;
40635;SDS011;26642;55.766;37.828;2022-12-29T01:19:24;3.22;;;1.15;;
40635;SDS011;26642;55.766;37.828;2022-12-29T01:21:50;2.20;;;0.85;;
40635;SDS011;26642;55.766;37.828;2022-12-29T01:24:17;1.98;;;0.77;;
40635;SDS011;26642;55.766;37.828;2022-12-29T01:26:45;2.60;;;0.80;;
40635;SDS011;26642;55.766;37.828;2022-12-29T01:29:11;4.22;;;0.93;;
40635;SDS011;26642;55.766;37.828;2022-12-29T01:31:38;0.98;;;0.80;;
40635;SDS011;26642;55.766;37.828;2022-12-29T01:34:04;3.08;;;0.70;;
40635;SDS011;26642;55.766;37.828;2022-12-29T01:36:31;4.20;;;1.00;;
40635;SDS011;26642;55.766;37.828;2022-12-29T01:38:57;1.60;;;0.90;;
40635;SDS011;26642;55.766;37.828;2022-12-29T01:41:23;1.85;;;0.82;;
40635;SDS011;26642;55.766;37.828;2022-12-29T01:43:50;2.00;;;0.80;;
40635;SDS011;26642;55.766;37.828;2022-12-29T01:49:21;4.72;;;0.90;;
40635;SDS011;26642;55.766;37.828;2022-12-29T01:51:52;2.85;;;0.65;;
40635;SDS011;26642;55.766;37.828;2022-12-29T01:54:29;1.00;;;0.80;;
40635;SDS011;26642;55.766;37.828;2022-12-29T01:56:57;3.80;;;0.70;;
40635;SDS011;26642;55.766;37.828;2022-12-29T01:59:29;2.20;;;0.85;;
40635;SDS011;26642;55.766;37.828;2022-12-29T02:01:59;3.08;;;0.70;;
40635;SDS011;26642;55.766;37.828;2022-12-29T02:04:26;2.50;;;0.90;;
40635;SDS011;26642;55.766;37.828;2022-12-29T02:07:02;1.95;;;0.73;;
40635;SDS011;26642;55.766;37.828;2022-12-29T02:09:32;2.17;;;0.77;;
40635;SDS011;26642;55.766;37.828;2022-12-29T02:11:59;1.38;;;0.47;;
40635;SDS011;26642;55.766;37.828;2022-12-29T02:14:26;1.85;;;0.70;;
40635;SDS011;26642;55.766;37.828;2022-12-29T02:19:46;2.25;;;1.00;;
40635;SDS011;26642;55.766;37.828;2022-12-29T02:22:59;2.08;;;0.90;;
40635;SDS011;26642;55.766;37.828;2022-12-29T02:37:00;3.15;;;0.90;;
40635;SDS011;26642;55.766;37.828;2022-12-29T02:42:49;2.50;;;1.13;;
40635;SDS011;26642;55.766;37.828;2022-12-29T02:45:26;4.53;;;1.00;;
40635;SDS011;26642;55.766;37.828;2022-12-29T02:47:58;2.30;;;1.10;;
40635;SDS011;26642;55.766;37.828;2022-12-29T02:53:27;3.35;;;0.90;;
40635;SDS011;26642;55.766;37.828;2022-12-29T02:56:14;1.88;;;0.68;;
40635;SDS011;26642;55.766;37.828;2022-12-29T02:58:40;3.78;;;1.08;;
40635;SDS011;26642;55.766;37.828;2022-12-29T03:06:29;2.75;;;0.80;;
40635;SDS011;26642;55.766;37.828;2022-12-29T03:11:33;2.47;;;0.77;;
40635;SDS011;26642;55.766;37.828;2022-12-29T03:14:27;1.70;;;0.98;;
40635;SDS011;26642;55.766;37.828;2022-12-29T03:17:28;2.63;;;0.90;;
40635;SDS011;26642;55.766;37.828;2022-12-29T03:20:07;4.75;;;1.05;;
40635;SDS011;26642;55.766;37.828;2022-12-29T03:22:39;2.65;;;0.80;;
40635;SDS011;26642;55.766;37.828;2022-12-29T03:25:20;2.80;;;1.23;;
40635;SDS011;26642;55.766;37.828;2022-12-29T03:28:03;4.75;;;1.05;;
40635;SDS011;26642;55.766;37.828;2022-12-29T03:30:42;1.70;;;1.10;;
40635;SDS011;26642;55.766;37.828;2022-12-29T03:33:12;1.42;;;0.85;;
40635;SDS011;26642;55.766;37.828;2022-12-29T03:35:41;3.28;;;1.30;;
40635;SDS011;26642;55.766;37.828;2022-12-29T03:38:33;2.80;;;1.00;;
40635;SDS011;26642;55.766;37.828;2022-12-29T03:41:11;4.72;;;1.25;;
40635;SDS011;26642;55.766;37.828;2022-12-29T03:43:39;2.30;;;1.33;;
40635;SDS011;26642;55.766;37.828;2022-12-29T03:46:05;3.88;;;1.58;;
40635;SDS011;26642;55.766;37.828;2022-12-29T03:48:32;2.80;;;1.10;;
40635;SDS011;26642;55.766;37.828;2022-12-29T03:50:58;2.55;;;1.20;;
40635;SDS011;26642;55.766;37.828;2022-12-29T03:53:24;3.25;;;1.40;;
40635;SDS011;26642;55.766;37.828;2022-12-29T03:55:50;2.90;;;1.33;;
40635;SDS011;26642;55.766;37.828;2022-12-29T03:58:16;3.08;;;1.13;;
40635;SDS011;26642;55.766;37.828;2022-12-29T04:00:56;4.70;;;1.33;;
40635;SDS011;26642;55.766;37.828;2022-12-29T04:03:23;2.78;;;1.08;;
40635;SDS011;26642;55.766;37.828;2022-12-29T04:05:49;2.60;;;1.10;;
40635;SDS011;26642;55.766;37.828;2022-12-29T04:08:16;2.40;;;0.95;;
40635;SDS011;26642;55.766;37.828;2022-12-29T04:10:42;2.80;;;1.20;;
40635;SDS011;26642;55.766;37.828;2022-12-29T04:13:08;3.88;;;1.30;;
40635;SDS011;26642;55.766;37.828;2022-12-29T04:15:34;2.33;;;1.17;;
40635;SDS011;26642;55.766;37.828;2022-12-29T04:18:01;2.35;;;1.13;;
40635;SDS011;26642;55.766;37.828;2022-12-29T04:20:28;1.27;;;1.05;;
40635;SDS011;26642;55.766;37.828;2022-12-29T04:23:12;3.00;;;0.90;;
40635;SDS011;26642;55.766;37.828;2022-12-29T04:25:38;2.17;;;1.17;;
40635;SDS011;26642;55.766;37.828;2022-12-29T04:28:07;3.40;;;1.30;;
40635;SDS011;26642;55.766;37.828;2022-12-29T04:30:39;1.45;;;1.10;;
40635;SDS011;26642;55.766;37.828;2022-12-29T04:33:28;3.15;;;1.40;;
40635;SDS011;26642;55.766;37.828;2022-12-29T04:35:54;2.00;;;1.05;;
40635;SDS011;26642;55.766;37.828;2022-12-29T04:38:23;3.38;;;1.30;;
40635;SDS011;26642;55.766;37.828;2022-12-29T04:40:50;2.55;;;1.17;;
40635;SDS011;26642;55.766;37.828;2022-12-29T04:43:19;3.00;;;1.10;;
40635;SDS011;26642;55.766;37.828;2022-12-29T04:46:02;2.92;;;1.38;;
40635;SDS011;26642;55.766;37.828;2022-12-29T04:48:37;5.70;;;1.77;;
40635;SDS011;26642;55.766;37.828;2022-12-29T04:51:21;5.20;;;1.70;;
40635;SDS011;26642;55.766;37.828;2022-12-29T04:53:49;5.40;;;1.48;;
40635;SDS011;26642;55.766;37.828;2022-12-29T04:56:15;3.10;;;1.80;;
40635;SDS011;26642;55.766;37.828;2022-12-29T04:58:41;8.32;;;1.80;;
40635;SDS011;26642;55.766;37.828;2022-12-29T05:01:07;7.65;;;1.70;;
40635;SDS011;26642;55.766;37.828;2022-12-29T05:03:33;6.60;;;1.65;;
40635;SDS011;26642;55.766;37.828;2022-12-29T05:05:59;3.47;;;1.40;;
40635;SDS011;26642;55.766;37.828;2022-12-29T05:08:26;2.30;;;1.40;;
40635;SDS011;26642;55.766;37.828;2022-12-29T05:10:53;2.97;;;1.80;;
40635;SDS011;26642;55.766;37.828;2022-12-29T05:13:19;5.25;;;1.88;;
40635;SDS011;26642;55.766;37.828;2022-12-29T05:15:50;1.40;;;1.25;;
40635;SDS011;26642;55.766;37.828;2022-12-29T05:18:17;3.80;;;2.22;;
40635;SDS011;26642;55.766;37.828;2022-12-29T05:20:43;2.47;;;1.33;;
40635;SDS011;26642;55.766;37.828;2022-12-29T05:23:10;4.78;;;2.13;;
40635;SDS011;26642;55.766;37.828;2022-12-29T05:25:36;5.65;;;1.77;;
40635;SDS011;26642;55.766;37.828;2022-12-29T05:28:13;4.43;;;1.80;;
40635;SDS011;26642;55.766;37.828;2022-12-29T05:30:50;5.10;;;1.80;;
40635;SDS011;26642;55.766;37.828;2022-12-29T05:33:18;6.53;;;1.73;;
40635;SDS011;26642;55.766;37.828;2022-12-29T05:35:45;3.90;;;1.70;;
40635;SDS011;26642;55.766;37.828;2022-12-29T05:38:12;4.82;;;1.52;;
40635;SDS011;26642;55.766;37.828;2022-12-29T05:40:37;2.78;;;1.63;;
40635;SDS011;26642;55.766;37.828;2022-12-29T05:43:15;2.67;;;1.75;;
40635;SDS011;26642;55.766;37.828;2022-12-29T05:46:20;5.78;;;1.60;;
40635;SDS011;26642;55.766;37.828;2022-12-29T05:48:57;2.42;;;1.85;;
40635;SDS011;26642;55.766;37.828;2022-12-29T05:51:41;5.63;;;2.17;;
40635;SDS011;26642;55.766;37.828;2022-12-29T05:54:07;1.98;;;1.48;;
40635;SDS011;26642;55.766;37.828;2022-12-29T05:56:33;2.25;;;1.60;;
40635;SDS011;26642;55.766;37.828;2022-12-29T05:59:00;5.03;;;2.00;;
40635;SDS011;26642;55.766;37.828;2022-12-29T06:01:26;4.60;;;2.15;;
40635;SDS011;26642;55.766;37.828;2022-12-29T06:03:53;3.72;;;2.00;;
40635;SDS011;26642;55.766;37.828;2022-12-29T06:06:20;15.30;;;8.57;;
40635;SDS011;26642;55.766;37.828;2022-12-29T06:08:46;12.48;;;6.53;;
40635;SDS011;26642;55.766;37.828;2022-12-29T06:11:12;9.40;;;6.38;;
40635;SDS011;26642;55.766;37.828;2022-12-29T06:13:43;8.35;;;4.15;;
40635;SDS011;26642;55.766;37.828;2022-12-29T06:16:11;5.78;;;3.47;;
40635;SDS011;26642;55.766;37.828;2022-12-29T06:18:38;8.63;;;3.20;;
40635;SDS011;26642;55.766;37.828;2022-12-29T06:21:04;4.68;;;2.60;;
40635;SDS011;26642;55.766;37.828;2022-12-29T06:23:31;5.38;;;2.53;;
40635;SDS011;26642;55.766;37.828;2022-12-29T06:25:57;9.70;;;2.72;;
40635;SDS011;26642;55.766;37.828;2022-12-29T06:28:23;8.85;;;2.63;;
40635;SDS011;26642;55.766;37.828;2022-12-29T06:30:49;4.32;;;2.38;;
40635;SDS011;26642;55.766;37.828;2022-12-29T06:33:17;5.13;;;2.55;;
40635;SDS011;26642;55.766;37.828;2022-12-29T06:35:43;3.33;;;2.22;;
40635;SDS011;26642;55.766;37.828;2022-12-29T06:38:11;5.63;;;2.78;;
40635;SDS011;26642;55.766;37.828;2022-12-29T06:40:37;6.15;;;2.83;;
40635;SDS011;26642;55.766;37.828;2022-12-29T06:43:19;4.75;;;2.80;;
40635;SDS011;26642;55.766;37.828;2022-12-29T06:45:57;4.43;;;2.67;;
40635;SDS011;26642;55.766;37.828;2022-12-29T06:48:24;4.90;;;2.67;;
40635;SDS011;26642;55.766;37.828;2022-12-29T06:50:50;3.88;;;2.53;;
40635;SDS011;26642;55.766;37.828;2022-12-29T06:53:16;5.07;;;3.17;;
40635;SDS011;26642;55.766;37.828;2022-12-29T06:55:42;5.10;;;2.40;;
40635;SDS011;26642;55.766;37.828;2022-12-29T06:58:08;3.70;;;2.38;;
40635;SDS011;26642;55.766;37.828;2022-12-29T07:00:33;4.97;;;2.90;;
40635;SDS011;26642;55.766;37.828;2022-12-29T07:02:59;4.60;;;3.25;;
40635;SDS011;26642;55.766;37.828;2022-12-29T07:05:25;5.65;;;3.00;;
40635;SDS011;26642;55.766;37.828;2022-12-29T07:07:53;5.00;;;2.50;;
40635;SDS011;26642;55.766;37.828;2022-12-29T07:10:19;5.28;;;2.40;;
40635;SDS011;26642;55.766;37.828;2022-12-29T07:12:46;4.30;;;2.65;;
40635;SDS011;26642;55.766;37.828;2022-12-29T07:15:12;5.25;;;2.35;;
40635;SDS011;26642;55.766;37.828;2022-12-29T07:17:38;5.35;;;2.70;;
40635;SDS011;26642;55.766;37.828;2022-12-29T07:20:04;6.15;;;3.20;;
40635;SDS011;26642;55.766;37.828;2022-12-29T07:22:31;6.45;;;2.40;;
40635;SDS011;26642;55.766;37.828;2022-12-29T07:24:57;4.85;;;2.90;;
40635;SDS011;26642;55.766;37.828;2022-12-29T07:27:23;6.53;;;2.55;;
40635;SDS011;26642;55.766;37.828;2022-12-29T07:29:49;5.70;;;2.90;;
40635;SDS011;26642;55.766;37.828;2022-12-29T07:32:15;5.65;;;3.20;;
40635;SDS011;26642;55.766;37.828;2022-12-29T07:34:41;5.57;;;2.90;;
40635;SDS011;26642;55.766;37.828;2022-12-29T07:37:07;7.15;;;3.13;;
40635;SDS011;26642;55.766;37.828;2022-12-29T07:39:33;8.18;;;2.67;;
40635;SDS011;26642;55.766;37.828;2022-12-29T07:41:58;10.35;;;2.40;;
40635;SDS011;26642;55.766;37.828;2022-12-29T07:44:25;8.32;;;2.45;;
40635;SDS011;26642;55.766;37.828;2022-12-29T07:47:10;5.25;;;3.00;;
40635;SDS011;26642;55.766;37.828;2022-12-29T07:49:36;5.68;;;3.20;;
40635;SDS011;26642;55.766;37.828;2022-12-29T07:52:01;7.55;;;3.47;;
40635;SDS011;26642;55.766;37.828;2022-12-29T07:54:27;9.20;;;3.60;;
40635;SDS011;26642;55.766;37.828;2022-12-29T07:56:53;8.38;;;3.80;;
40635;SDS011;26642;55.766;37.828;2022-12-29T07:59:19;5.60;;;3.25;;
40635;SDS011;26642;55.766;37.828;2022-12-29T08:01:46;5.93;;;3.35;;
40635;SDS011;26642;55.766;37.828;2022-12-29T08:04:12;8.90;;;3.60;;
40635;SDS011;26642;55.766;37.828;2022-12-29T08:06:38;5.13;;;3.00;;
40635;SDS011;26642;55.766;37.828;2022-12-29T08:09:04;6.05;;;3.17;;
40635;SDS011;26642;55.766;37.828;2022-12-29T08:11:30;4.93;;;3.45;;
40635;SDS011;26642;55.766;37.828;2022-12-29T08:13:56;8.95;;;3.92;;
40635;SDS011;26642;55.766;37.828;2022-12-29T08:16:22;7.05;;;3.50;;
40635;SDS011;26642;55.766;37.828;2022-12-29T08:18:48;6.75;;;3.42;;
40635;SDS011;26642;55.766;37.828;2022-12-29T08:21:14;5.70;;;3.20;;
40635;SDS011;26642;55.766;37.828;2022-12-29T08:23:40;6.43;;;3.42;;
40635;SDS011;26642;55.766;37.828;2022-12-29T08:26:06;8.95;;;3.65;;
40635;SDS011;26642;55.766;37.828;2022-12-29T08:28:32;7.53;;;3.20;;
40635;SDS011;26642;55.766;37.828;2022-12-29T08:30:59;6.13;;;3.17;;
40635;SDS011;26642;55.766;37.828;2022-12-29T08:33:27;6.50;;;2.88;;
40635;SDS011;26642;55.766;37.828;2022-12-29T08:35:58;5.43;;;2.70;;
40635;SDS011;26642;55.766;37.828;2022-12-29T08:38:26;6.63;;;2.33;;
40635;SDS011;26642;55.766;37.828;2022-12-29T08:40:53;5.50;;;2.58;;
40635;SDS011;26642;55.766;37.828;2022-12-29T08:43:18;6.88;;;2.92;;
40635;SDS011;26642;55.766;37.828;2022-12-29T08:45:44;10.57;;;3.10;;
40635;SDS011;26642;55.766;37.828;2022-12-29T08:48:10;8.77;;;3.40;;
40635;SDS011;26642;55.766;37.828;2022-12-29T08:50:36;4.35;;;2.40;;
40635;SDS011;26642;55.766;37.828;2022-12-29T08:53:02;5.22;;;2.90;;
40635;SDS011;26642;55.766;37.828;2022-12-29T08:55:28;5.32;;;2.63;;
40635;SDS011;26642;55.766;37.828;2022-12-29T08:57:55;7.32;;;2.97;;
40635;SDS011;26642;55.766;37.828;2022-12-29T09:00:22;5.95;;;2.72;;
40635;SDS011;26642;55.766;37.828;2022-12-29T09:02:49;4.15;;;2.30;;
40635;SDS011;26642;55.766;37.828;2022-12-29T09:05:15;6.60;;;2.60;;
40635;SDS011;26642;55.766;37.828;2022-12-29T09:07:41;7.78;;;2.90;;
40635;SDS011;26642;55.766;37.828;2022-12-29T09:10:07;4.75;;;2.80;;
40635;SDS011;26642;55.766;37.828;2022-12-29T09:12:33;5.05;;;3.00;;
40635;SDS011;26642;55.766;37.828;2022-12-29T09:14:59;4.72;;;2.97;;
40635;SDS011;26642;55.766;37.828;2022-12-29T09:17:25;6.72;;;2.60;;
40635;SDS011;26642;55.766;37.828;2022-12-29T09:20:13;9.55;;;2.55;;
40635;SDS011;26642;55.766;37.828;2022-12-29T09:22:41;4.03;;;2.47;;
40635;SDS011;26642;55.766;37.828;2022-12-29T09:25:07;6.15;;;2.80;;
40635;SDS011;26642;55.766;37.828;2022-12-29T09:27:35;4.97;;;3.05;;
40635;SDS011;26642;55.766;37.828;2022-12-29T09:30:02;5.45;;;3.30;;
40635;SDS011;26642;55.766;37.828;2022-12-29T09:32:29;5.35;;;2.75;;
40635;SDS011;26642;55.766;37.828;2022-12-29T09:34:55;9.93;;;3.13;;
40635;SDS011;26642;55.766;37.828;2022-12-29T09:37:21;6.03;;;3.05;;
40635;SDS011;26642;55.766;37.828;2022-12-29T09:39:47;6.10;;;3.38;;
40635;SDS011;26642;55.766;37.828;2022-12-29T09:42:19;7.63;;;3.50;;
40635;SDS011;26642;55.766;37.828;2022-12-29T09:47:43;11.25;;;4.05;;
40635;SDS011;26642;55.766;37.828;2022-12-29T09:52:48;4.07;;;2.92;;
40635;SDS011;26642;55.766;37.828;2022-12-29T09:55:28;8.55;;;3.08;;
40635;SDS011;26642;55.766;37.828;2022-12-29T09:58:02;5.07;;;3.30;;
40635;SDS011;26642;55.766;37.828;2022-12-29T10:00:47;5.40;;;3.00;;
40635;SDS011;26642;55.766;37.828;2022-12-29T10:03:18;5.43;;;2.95;;
40635;SDS011;26642;55.766;37.828;2022-12-29T10:05:47;6.07;;;3.03;;
40635;SDS011;26642;55.766;37.828;2022-12-29T10:19:25;6.60;;;3.45;;
40635;SDS011;26642;55.766;37.828;2022-12-29T10:24:56;7.13;;;3.63;;
40635;SDS011;26642;55.766;37.828;2022-12-29T10:27:23;9.05;;;3.72;;
40635;SDS011;26642;55.766;37.828;2022-12-29T10:29:54;7.05;;;4.13;;
40635;SDS011;26642;55.766;37.828;2022-12-29T10:35:06;6.20;;;3.97;;
40635;SDS011;26642;55.766;37.828;2022-12-29T10:40:42;6.88;;;4.60;;
40635;SDS011;26642;55.766;37.828;2022-12-29T10:43:17;7.93;;;4.40;;
40635;SDS011;26642;55.766;37.828;2022-12-29T10:45:56;5.90;;;4.20;;
40635;SDS011;26642;55.766;37.828;2022-12-29T10:48:26;5.97;;;4.20;;
40635;SDS011;26642;55.766;37.828;2022-12-29T10:50:56;7.07;;;4.63;;
40635;SDS011;26642;55.766;37.828;2022-12-29T10:53:25;8.95;;;4.72;;
40635;SDS011;26642;55.766;37.828;2022-12-29T10:55:56;8.57;;;4.90;;
40635;SDS011;26642;55.766;37.828;2022-12-29T10:58:25;8.38;;;4.65;;
40635;SDS011;26642;55.766;37.828;2022-12-29T11:00:53;8.00;;;5.03;;
40635;SDS011;26642;55.766;37.828;2022-12-29T11:09:00;9.10;;;5.72;;
40635;SDS011;26642;55.766;37.828;2022-12-29T11:11:47;9.00;;;5.60;;
40635;SDS011;26642;55.766;37.828;2022-12-29T11:14:14;9.90;;;5.53;;
40635;SDS011;26642;55.766;37.828;2022-12-29T11:16:44;11.32;;;5.55;;
40635;SDS011;26642;55.766;37.828;2022-12-29T11:19:27;9.32;;;5.18;;
40635;SDS011;26642;55.766;37.828;2022-12-29T11:24:51;10.13;;;5.47;;
40635;SDS011;26642;55.766;37.828;2022-12-29T11:27:22;8.02;;;5.07;;
40635;SDS011;26642;55.766;37.828;2022-12-29T11:29:51;8.52;;;5.40;;
40635;SDS011;26642;55.766;37.828;2022-12-29T11:32:18;7.53;;;4.70;;
40635;SDS011;26642;55.766;37.828;2022-12-29T11:34:48;19.48;;;5.57;;
40635;SDS011;26642;55.766;37.828;2022-12-29T11:37:16;12.15;;;5.40;;
40635;SDS011;26642;55.766;37.828;2022-12-29T11:39:54;8.90;;;5.50;;
40635;SDS011;26642;55.766;37.828;2022-12-29T11:42:23;7.55;;;5.57;;
40635;SDS011;26642;55.766;37.828;2022-12-29T11:45:24;7.82;;;5.93;;
40635;SDS011;26642;55.766;37.828;2022-12-29T11:47:52;7.90;;;5.80;;
40635;SDS011;26642;55.766;37.828;2022-12-29T11:50:25;10.32;;;5.97;;
40635;SDS011;26642;55.766;37.828;2022-12-29T11:53:01;7.68;;;5.80;;
40635;SDS011;26642;55.766;37.828;2022-12-29T11:55:30;6.43;;;5.10;;
40635;SDS011;26642;55.766;37.828;2022-12-29T11:57:57;9.38;;;6.13;;
40635;SDS011;26642;55.766;37.828;2022-12-29T12:00:27;8.68;;;5.45;;
40635;SDS011;26642;55.766;37.828;2022-12-29T12:05:52;8.05;;;5.70;;
40635;SDS011;26642;55.766;37.828;2022-12-29T12:08:28;8.52;;;5.43;;
40635;SDS011;26642;55.766;37.828;2022-12-29T12:14:01;7.70;;;5.20;;
40635;SDS011;26642;55.766;37.828;2022-12-29T12:17:26;11.65;;;5.78;;
40635;SDS011;26642;55.766;37.828;2022-12-29T12:25:56;10.48;;;5.10;;
40635;SDS011;26642;55.766;37.828;2022-12-29T12:31:57;8.68;;;6.13;;
40635;SDS011;26642;55.766;37.828;2022-12-29T12:34:14;8.00;;;5.38;;
40635;SDS011;26642;55.766;37.828;2022-12-29T12:39:47;10.15;;;5.47;;
40635;SDS011;26642;55.766;37.828;2022-12-29T12:42:42;8.32;;;5.05;;
40635;SDS011;26642;55.766;37.828;2022-12-29T12:45:32;7.60;;;4.78;;
40635;SDS011;26642;55.766;37.828;2022-12-29T12:51:02;7.65;;;4.32;;
40635;SDS011;26642;55.766;37.828;2022-12-29T12:56:47;5.68;;;4.40;;
40635;SDS011;26642;55.766;37.828;2022-12-29T12:59:42;7.05;;;4.00;;
40635;SDS011;26642;55.766;37.828;2022-12-29T13:02:37;8.13;;;4.60;;
40635;SDS011;26642;55.766;37.828;2022-12-29T13:16:20;5.95;;;3.95;;
40635;SDS011;26642;55.766;37.828;2022-12-29T13:37:52;8.18;;;4.57;;
40635;SDS011;26642;55.766;37.828;2022-12-29T13:40:23;6.73;;;4.53;;
40635;SDS011;26642;55.766;37.828;2022-12-29T13:42:54;8.15;;;4.45;;
40635;SDS011;26642;55.766;37.828;2022-12-29T13:45:25;6.55;;;4.63;;
40635;SDS011;26642;55.766;37.828;2022-12-29T13:50:29;7.60;;;4.63;;
40635;SDS011;26642;55.766;37.828;2022-12-29T13:53:18;8.32;;;5.07;;
40635;SDS011;26642;55.766;37.828;2022-12-29T13:56:06;8.77;;;4.97;;
40635;SDS011;26642;55.766;37.828;2022-12-29T14:01:39;8.93;;;4.68;;
40635;SDS011;26642;55.766;37.828;2022-12-29T14:04:14;6.78;;;4.43;;
40635;SDS011;26642;55.766;37.828;2022-12-29T14:06:46;7.90;;;4.95;;
40635;SDS011;26642;55.766;37.828;2022-12-29T14:14:48;9.88;;;5.25;;
40635;SDS011;26642;55.766;37.828;2022-12-29T14:17:16;9.05;;;5.10;;
40635;SDS011;26642;55.766;37.828;2022-12-29T14:19:45;9.85;;;5.35;;
40635;SDS011;26642;55.766;37.828;2022-12-29T14:22:22;8.85;;;5.18;;
40635;SDS011;26642;55.766;37.828;2022-12-29T14:24:52;10.15;;;5.50;;
40635;SDS011;26642;55.766;37.828;2022-12-29T14:29:45;8.02;;;5.07;;
40635;SDS011;26642;55.766;37.828;2022-12-29T14:34:52;8.73;;;5.65;;
40635;SDS011;26642;55.766;37.828;2022-12-29T14:37:23;7.95;;;5.32;;
40635;SDS011;26642;55.766;37.828;2022-12-29T14:42:42;9.20;;;5.90;;
40635;SDS011;26642;55.766;37.828;2022-12-29T14:47:38;10.50;;;6.07;;
40635;SDS011;26642;55.766;37.828;2022-12-29T14:50:20;9.18;;;6.22;;
40635;SDS011;26642;55.766;37.828;2022-12-29T14:53:01;10.82;;;6.22;;
40635;SDS011;26642;55.766;37.828;2022-12-29T14:58:12;8.75;;;5.60;;
40635;SDS011;26642;55.766;37.828;2022-12-29T15:00:45;13.32;;;6.65;;
40635;SDS011;26642;55.766;37.828;2022-12-29T15:08:42;10.35;;;5.40;;
40635;SDS011;26642;55.766;37.828;2022-12-29T15:11:42;9.05;;;5.78;;
40635;SDS011;26642;55.766;37.828;2022-12-29T15:14:33;10.15;;;5.93;;
40635;SDS011;26642;55.766;37.828;2022-12-29T15:17:21;8.35;;;5.60;;
40635;SDS011;26642;55.766;37.828;2022-12-29T15:19:50;11.20;;;6.70;;
40635;SDS011;26642;55.766;37.828;2022-12-29T15:22:17;9.18;;;5.68;;
40635;SDS011;26642;55.766;37.828;2022-12-29T15:24:43;9.07;;;6.20;;
40635;SDS011;26642;55.766;37.828;2022-12-29T15:27:13;11.00;;;5.90;;
40635;SDS011;26642;55.766;37.828;2022-12-29T15:29:41;9.77;;;6.35;;
40635;SDS011;26642;55.766;37.828;2022-12-29T15:34:41;10.65;;;6.47;;
40635;SDS011;26642;55.766;37.828;2022-12-29T15:37:20;11.13;;;7.10;;
40635;SDS011;26642;55.766;37.828;2022-12-29T15:39:51;10.43;;;6.68;;
40635;SDS011;26642;55.766;37.828;2022-12-29T15:42:39;13.65;;;7.07;;
40635;SDS011;26642;55.766;37.828;2022-12-29T15:45:11;13.13;;;7.85;;
40635;SDS011;26642;55.766;37.828;2022-12-29T15:47:39;12.13;;;7.22;;
40635;SDS011;26642;55.766;37.828;2022-12-29T15:52:39;17.85;;;9.20;;
40635;SDS011;26642;55.766;37.828;2022-12-29T15:55:06;13.68;;;7.97;;
40635;SDS011;26642;55.766;37.828;2022-12-29T15:57:43;12.65;;;8.18;;
40635;SDS011;26642;55.766;37.828;2022-12-29T16:00:22;16.08;;;8.23;;
40635;SDS011;26642;55.766;37.828;2022-12-29T16:03:00;14.48;;;8.70;;
40635;SDS011;26642;55.766;37.828;2022-12-29T16:05:31;12.77;;;8.05;;
40635;SDS011;26642;55.766;37.828;2022-12-29T16:08:03;15.10;;;8.60;;
40635;SDS011;26642;55.766;37.828;2022-12-29T16:10:46;15.52;;;8.30;;
40635;SDS011;26642;55.766;37.828;2022-12-29T16:13:16;14.05;;;8.55;;
40635;SDS011;26642;55.766;37.828;2022-12-29T16:15:48;14.63;;;8.77;;
40635;SDS011;26642;55.766;37.828;2022-12-29T16:18:24;15.75;;;9.15;;
40635;SDS011;26642;55.766;37.828;2022-12-29T16:20:53;13.90;;;8.77;;
40635;SDS011;26642;55.766;37.828;2022-12-29T16:23:25;14.35;;;8.77;;
40635;SDS011;26642;55.766;37.828;2022-12-29T16:25:54;16.85;;;8.32;;
40635;SDS011;26642;55.766;37.828;2022-12-29T16:28:40;20.35;;;9.77;;
40635;SDS011;26642;55.766;37.828;2022-12-29T16:31:17;16.52;;;8.35;;
40635;SDS011;26642;55.766;37.828;2022-12-29T16:33:51;16.75;;;9.07;;
40635;SDS011;26642;55.766;37.828;2022-12-29T16:36:30;18.92;;;9.82;;
40635;SDS011;26642;55.766;37.828;2022-12-29T16:39:38;17.52;;;9.52;;
40635;SDS011;26642;55.766;37.828;2022-12-29T16:41:57;18.58;;;9.32;;
40635;SDS011;26642;55.766;37.828;2022-12-29T16:44:27;20.73;;;9.07;;
40635;SDS011;26642;55.766;37.828;2022-12-29T16:47:05;18.45;;;9.43;;
40635;SDS011;26642;55.766;37.828;2022-12-29T16:49:42;20.35;;;9.73;;
40635;SDS011;26642;55.766;37.828;2022-12-29T16:54:55;19.55;;;9.90;;
40635;SDS011;26642;55.766;37.828;2022-12-29T16:57:26;17.08;;;9.30;;
40635;SDS011;26642;55.766;37.828;2022-12-29T16:59:55;18.65;;;9.52;;
40635;SDS011;26642;55.766;37.828;2022-12-29T17:02:25;16.70;;;9.50;;
40635;SDS011;26642;55.766;37.828;2022-12-29T17:04:54;17.90;;;9.40;;
40635;SDS011;26642;55.766;37.828;2022-12-29T17:07:21;15.52;;;9.65;;
40635;SDS011;26642;55.766;37.828;2022-12-29T17:09:49;18.85;;;10.40;;
40635;SDS011;26642;55.766;37.828;2022-12-29T17:12:34;20.63;;;10.70;;
40635;SDS011;26642;55.766;37.828;2022-12-29T17:15:02;18.02;;;10.07;;
40635;SDS011;26642;55.766;37.828;2022-12-29T17:17:47;22.45;;;10.98;;
40635;SDS011;26642;55.766;37.828;2022-12-29T17:20:18;18.30;;;10.43;;
40635;SDS011;26642;55.766;37.828;2022-12-29T17:22:49;19.65;;;10.38;;
40635;SDS011;26642;55.766;37.828;2022-12-29T17:25:20;17.70;;;10.27;;
40635;SDS011;26642;55.766;37.828;2022-12-29T17:28:04;20.23;;;10.55;;
40635;SDS011;26642;55.766;37.828;2022-12-29T17:30:50;20.90;;;10.43;;
40635;SDS011;26642;55.766;37.828;2022-12-29T17:33:18;18.10;;;9.25;;
40635;SDS011;26642;55.766;37.828;2022-12-29T17:35:45;20.48;;;10.65;;